DLH52F EDDF-LEBL
Flight info
| Callsign | DLH52F |
|---|---|
| Flight time | 1h 45m |
| Altitude | 37000 |
| Route | ANEKI2L/18 ANEKI Y163 HERBI Y164 MOPAN DCT LUTIX/N0443F390 DCT BENOT DCT NEMOS DCT GEVEA/N0375F270 DCT INCUS DCT BALSI/N0430F350 DCT RETNO DCT TUPOX DCT MTG DCT DIVKO/N0444F390 DCT NILDU DCT BISBA |
| Aircraft | A320/M-SDE2E3FGIJ1LORWXYZ/HB1 |
Departure
| Time | 2026-05-05 08:15 |
|---|---|
| Airport | Frankfurt Main Airport (EDDF) |
Arrival
| Time | 2026-05-05 10:01 |
|---|---|
| Airport | Josep Tarradellas Barcelona-El Prat Airport (LEBL) |
| Time | Latitude | Longitude | Altitude | Speed | Heading |
|---|---|---|---|---|---|
| 2026-05-05 07:48 | 50.04179 | 8.56129 | 353 ft | 0 kts | 160° |
| 2026-05-05 08:10 | 50.04171 | 8.56134 | 360 ft | 7 kts | 160° |
| 2026-05-05 08:10 | 50.04102 | 8.56155 | 352 ft | 10 kts | 219° |
| 2026-05-05 08:10 | 50.04061 | 8.55998 | 354 ft | 21 kts | 250° |
| 2026-05-05 08:11 | 50.04007 | 8.55775 | 352 ft | 24 kts | 249° |
| 2026-05-05 08:11 | 50.03947 | 8.55523 | 355 ft | 26 kts | 249° |
| 2026-05-05 08:11 | 50.03882 | 8.55253 | 353 ft | 28 kts | 250° |
| 2026-05-05 08:11 | 50.03812 | 8.54963 | 350 ft | 29 kts | 249° |
| 2026-05-05 08:12 | 50.03745 | 8.54680 | 349 ft | 29 kts | 249° |
| 2026-05-05 08:12 | 50.03674 | 8.54386 | 350 ft | 29 kts | 249° |
| 2026-05-05 08:12 | 50.03628 | 8.54191 | 348 ft | 29 kts | 250° |
| 2026-05-05 08:12 | 50.03558 | 8.53898 | 340 ft | 26 kts | 250° |
| 2026-05-05 08:13 | 50.03497 | 8.53642 | 338 ft | 26 kts | 249° |
| 2026-05-05 08:13 | 50.03430 | 8.53364 | 335 ft | 29 kts | 250° |
| 2026-05-05 08:13 | 50.03359 | 8.53067 | 333 ft | 30 kts | 250° |
| 2026-05-05 08:13 | 50.03293 | 8.52791 | 334 ft | 14 kts | 249° |
| 2026-05-05 08:14 | 50.03270 | 8.52695 | 333 ft | 14 kts | 249° |
| 2026-05-05 08:14 | 50.03220 | 8.52598 | 333 ft | 11 kts | 197° |
| 2026-05-05 08:14 | 50.03146 | 8.52596 | 334 ft | 12 kts | 179° |
| 2026-05-05 08:14 | 50.02880 | 8.52599 | 335 ft | 77 kts | 180° |
| 2026-05-05 08:15 | 50.02094 | 8.52607 | 335 ft | 143 kts | 179° |
| 2026-05-05 08:15 | 50.00991 | 8.52604 | 679 ft | 162 kts | 181° |
| 2026-05-05 08:15 | 49.99899 | 8.52602 | 1499 ft | 155 kts | 178° |
| 2026-05-05 08:15 | 49.98780 | 8.52672 | 2079 ft | 170 kts | 176° |
| 2026-05-05 08:16 | 49.97515 | 8.52773 | 2491 ft | 193 kts | 176° |
| 2026-05-05 08:16 | 49.96090 | 8.52883 | 2863 ft | 218 kts | 177° |
| 2026-05-05 08:16 | 49.94564 | 8.52997 | 3557 ft | 228 kts | 177° |
| 2026-05-05 08:16 | 49.92974 | 8.53114 | 4511 ft | 229 kts | 178° |
| 2026-05-05 08:17 | 49.91377 | 8.53233 | 5479 ft | 230 kts | 178° |
| 2026-05-05 08:17 | 49.89778 | 8.53349 | 6449 ft | 231 kts | 178° |
| 2026-05-05 08:17 | 49.88158 | 8.53463 | 7333 ft | 234 kts | 178° |
| 2026-05-05 08:17 | 49.86519 | 8.53573 | 8189 ft | 238 kts | 178° |
| 2026-05-05 08:18 | 49.84847 | 8.53684 | 9049 ft | 243 kts | 178° |
| 2026-05-05 08:18 | 49.83140 | 8.53801 | 9891 ft | 248 kts | 178° |
| 2026-05-05 08:18 | 49.81544 | 8.53915 | 10624 ft | 251 kts | 178° |
| 2026-05-05 08:18 | 49.79790 | 8.54040 | 11457 ft | 254 kts | 179° |
| 2026-05-05 08:19 | 49.78015 | 8.54128 | 12292 ft | 256 kts | 184° |
| 2026-05-05 08:19 | 49.76228 | 8.53922 | 12711 ft | 276 kts | 186° |
| 2026-05-05 08:19 | 49.74311 | 8.53664 | 12985 ft | 299 kts | 186° |
| 2026-05-05 08:19 | 49.72157 | 8.53365 | 13263 ft | 322 kts | 186° |
| 2026-05-05 08:20 | 49.69891 | 8.53051 | 13871 ft | 330 kts | 186° |
| 2026-05-05 08:20 | 49.67589 | 8.52738 | 14579 ft | 334 kts | 186° |
| 2026-05-05 08:20 | 49.65264 | 8.52429 | 15318 ft | 337 kts | 186° |
| 2026-05-05 08:20 | 49.63086 | 8.52158 | 16010 ft | 339 kts | 185° |
| 2026-05-05 08:21 | 49.60730 | 8.51861 | 16744 ft | 342 kts | 185° |
| 2026-05-05 08:21 | 49.59858 | 8.51749 | 17005 ft | 343 kts | 185° |
| 2026-05-05 08:21 | 49.57472 | 8.51434 | 17731 ft | 345 kts | 185° |
| 2026-05-05 08:21 | 49.55068 | 8.51111 | 18410 ft | 348 kts | 185° |
| 2026-05-05 08:22 | 49.52669 | 8.50787 | 18996 ft | 352 kts | 185° |
| 2026-05-05 08:22 | 49.50214 | 8.50458 | 19575 ft | 356 kts | 185° |
| 2026-05-05 08:22 | 49.47908 | 8.50152 | 20120 ft | 360 kts | 185° |
| 2026-05-05 08:22 | 49.46471 | 8.49963 | 20463 ft | 362 kts | 185° |
| 2026-05-05 08:23 | 49.44613 | 8.49721 | 20889 ft | 365 kts | 185° |
| 2026-05-05 08:23 | 49.42064 | 8.49388 | 21463 ft | 370 kts | 185° |
| 2026-05-05 08:23 | 49.39486 | 8.49051 | 22043 ft | 374 kts | 185° |
| 2026-05-05 08:23 | 49.36874 | 8.48711 | 22616 ft | 379 kts | 185° |
| 2026-05-05 08:24 | 49.34267 | 8.48373 | 23170 ft | 383 kts | 185° |
| 2026-05-05 08:24 | 49.31595 | 8.48027 | 23685 ft | 387 kts | 186° |
| 2026-05-05 08:24 | 49.29062 | 8.47697 | 24160 ft | 389 kts | 186° |
| 2026-05-05 08:24 | 49.26656 | 8.47384 | 24628 ft | 390 kts | 186° |
| 2026-05-05 08:25 | 49.23944 | 8.47030 | 25146 ft | 392 kts | 186° |
| 2026-05-05 08:25 | 49.21226 | 8.46678 | 25648 ft | 393 kts | 186° |
| 2026-05-05 08:25 | 49.18502 | 8.46328 | 26182 ft | 393 kts | 186° |
| 2026-05-05 08:25 | 49.15798 | 8.45975 | 26681 ft | 394 kts | 186° |
| 2026-05-05 08:26 | 49.13064 | 8.45617 | 27161 ft | 395 kts | 186° |
| 2026-05-05 08:26 | 49.10894 | 8.45334 | 27529 ft | 396 kts | 186° |
| 2026-05-05 08:26 | 49.10454 | 8.45276 | 27603 ft | 396 kts | 186° |
| 2026-05-05 08:26 | 49.08553 | 8.45029 | 27919 ft | 397 kts | 186° |
| 2026-05-05 08:27 | 49.05805 | 8.44539 | 28364 ft | 398 kts | 192° |
| 2026-05-05 08:27 | 49.03101 | 8.43619 | 28803 ft | 399 kts | 193° |
| 2026-05-05 08:27 | 49.00388 | 8.42674 | 29235 ft | 401 kts | 193° |
| 2026-05-05 08:27 | 48.97714 | 8.41742 | 29650 ft | 402 kts | 193° |
| 2026-05-05 08:28 | 48.95010 | 8.40801 | 30051 ft | 404 kts | 193° |
| 2026-05-05 08:28 | 48.92769 | 8.40020 | 30349 ft | 405 kts | 193° |
| 2026-05-05 08:28 | 48.90023 | 8.39064 | 30704 ft | 405 kts | 194° |
| 2026-05-05 08:28 | 48.87271 | 8.38108 | 31039 ft | 406 kts | 194° |
| 2026-05-05 08:29 | 48.84513 | 8.37154 | 31374 ft | 407 kts | 194° |
| 2026-05-05 08:29 | 48.81755 | 8.36201 | 31771 ft | 406 kts | 194° |
| 2026-05-05 08:29 | 48.79009 | 8.35254 | 32249 ft | 403 kts | 194° |
| 2026-05-05 08:30 | 48.73633 | 8.33340 | 33281 ft | 395 kts | 195° |
| 2026-05-05 08:30 | 48.70977 | 8.32362 | 33789 ft | 391 kts | 195° |
| 2026-05-05 08:30 | 48.68472 | 8.31432 | 34191 ft | 389 kts | 195° |
| 2026-05-05 08:30 | 48.65848 | 8.30459 | 34505 ft | 389 kts | 195° |
| 2026-05-05 08:31 | 48.63214 | 8.29488 | 34751 ft | 390 kts | 195° |
| 2026-05-05 08:31 | 48.60568 | 8.28521 | 35002 ft | 392 kts | 195° |
| 2026-05-05 08:31 | 48.57980 | 8.27583 | 35240 ft | 393 kts | 194° |
| 2026-05-05 08:31 | 48.55362 | 8.26636 | 35474 ft | 394 kts | 194° |
| 2026-05-05 08:32 | 48.52690 | 8.25666 | 35708 ft | 395 kts | 194° |
| 2026-05-05 08:32 | 48.50017 | 8.24697 | 35948 ft | 396 kts | 194° |
| 2026-05-05 08:32 | 48.47576 | 8.23813 | 36155 ft | 397 kts | 194° |
| 2026-05-05 08:32 | 48.44863 | 8.22826 | 36395 ft | 398 kts | 194° |
| 2026-05-05 08:33 | 48.42172 | 8.21840 | 36617 ft | 399 kts | 194° |
| 2026-05-05 08:33 | 48.40069 | 8.21073 | 36810 ft | 399 kts | 194° |
| 2026-05-05 08:33 | 48.37369 | 8.20091 | 37026 ft | 400 kts | 194° |
| 2026-05-05 08:33 | 48.34661 | 8.19103 | 37213 ft | 401 kts | 194° |
| 2026-05-05 08:34 | 48.31941 | 8.18108 | 37389 ft | 403 kts | 194° |
| 2026-05-05 08:34 | 48.29220 | 8.17116 | 37588 ft | 404 kts | 194° |
| 2026-05-05 08:34 | 48.26474 | 8.16115 | 37789 ft | 405 kts | 195° |
| 2026-05-05 08:34 | 48.24034 | 8.14950 | 37957 ft | 405 kts | 203° |
| 2026-05-05 08:35 | 48.21575 | 8.13196 | 38133 ft | 406 kts | 206° |
| 2026-05-05 08:35 | 48.19041 | 8.11305 | 38318 ft | 407 kts | 206° |
| 2026-05-05 08:35 | 48.16549 | 8.09456 | 38495 ft | 408 kts | 206° |
| 2026-05-05 08:35 | 48.13950 | 8.07535 | 38650 ft | 409 kts | 206° |
| 2026-05-05 08:36 | 48.11392 | 8.05648 | 38802 ft | 410 kts | 206° |
| 2026-05-05 08:36 | 48.06377 | 8.01958 | 38891 ft | 412 kts | 206° |
| 2026-05-05 08:37 | 48.01770 | 7.98576 | 38900 ft | 412 kts | 206° |
| 2026-05-05 08:37 | 47.96621 | 7.94794 | 38896 ft | 412 kts | 206° |
| 2026-05-05 08:38 | 47.91478 | 7.91026 | 38901 ft | 411 kts | 207° |
| 2026-05-05 08:38 | 47.86466 | 7.87362 | 38900 ft | 411 kts | 206° |
| 2026-05-05 08:39 | 47.81325 | 7.83616 | 38903 ft | 411 kts | 206° |
| 2026-05-05 08:39 | 47.76197 | 7.79888 | 38907 ft | 412 kts | 206° |
| 2026-05-05 08:40 | 47.71057 | 7.76155 | 38898 ft | 411 kts | 207° |
| 2026-05-05 08:40 | 47.66189 | 7.72624 | 38906 ft | 411 kts | 206° |
| 2026-05-05 08:41 | 47.61040 | 7.68904 | 38909 ft | 411 kts | 206° |
| 2026-05-05 08:41 | 47.55893 | 7.65200 | 38910 ft | 412 kts | 206° |
| 2026-05-05 08:42 | 47.51464 | 7.62015 | 38903 ft | 411 kts | 206° |
| 2026-05-05 08:42 | 47.46348 | 7.58350 | 38908 ft | 411 kts | 207° |
| 2026-05-05 08:43 | 47.41223 | 7.54666 | 38913 ft | 411 kts | 207° |
| 2026-05-05 08:43 | 47.36077 | 7.50977 | 38920 ft | 411 kts | 207° |
| 2026-05-05 08:44 | 47.31404 | 7.47647 | 38934 ft | 411 kts | 207° |
| 2026-05-05 08:44 | 47.26262 | 7.43988 | 38941 ft | 410 kts | 207° |
| 2026-05-05 08:45 | 47.21196 | 7.40389 | 38943 ft | 410 kts | 207° |
| 2026-05-05 08:45 | 47.16991 | 7.36860 | 38938 ft | 408 kts | 219° |
| 2026-05-05 08:46 | 47.13245 | 7.31028 | 38934 ft | 407 kts | 231° |
| 2026-05-05 08:46 | 47.09719 | 7.24511 | 38921 ft | 407 kts | 231° |
| 2026-05-05 08:47 | 47.06177 | 7.18014 | 38927 ft | 408 kts | 231° |
| 2026-05-05 08:47 | 47.02634 | 7.11524 | 38937 ft | 408 kts | 231° |
| 2026-05-05 08:48 | 46.99307 | 7.05439 | 38933 ft | 408 kts | 231° |
| 2026-05-05 08:48 | 46.95762 | 6.98970 | 38932 ft | 407 kts | 231° |
| 2026-05-05 08:49 | 46.92341 | 6.92751 | 38954 ft | 407 kts | 230° |
| 2026-05-05 08:49 | 46.88239 | 6.87107 | 38947 ft | 405 kts | 219° |
| 2026-05-05 08:50 | 46.84118 | 6.82186 | 38944 ft | 405 kts | 219° |
| 2026-05-05 08:50 | 46.79830 | 6.77094 | 38939 ft | 405 kts | 219° |
| 2026-05-05 08:51 | 46.75461 | 6.71908 | 38934 ft | 405 kts | 219° |
| 2026-05-05 08:51 | 46.71095 | 6.66733 | 38940 ft | 404 kts | 219° |
| 2026-05-05 08:52 | 46.66790 | 6.61640 | 38947 ft | 405 kts | 219° |
| 2026-05-05 08:52 | 46.62561 | 6.56657 | 38936 ft | 403 kts | 219° |
| 2026-05-05 08:53 | 46.58211 | 6.51533 | 38931 ft | 402 kts | 219° |
| 2026-05-05 08:53 | 46.54041 | 6.46639 | 38930 ft | 402 kts | 219° |
| 2026-05-05 08:54 | 46.49702 | 6.41539 | 38938 ft | 403 kts | 219° |
| 2026-05-05 08:54 | 46.45546 | 6.36665 | 38932 ft | 403 kts | 219° |
| 2026-05-05 08:55 | 46.41181 | 6.31570 | 38924 ft | 403 kts | 219° |
| 2026-05-05 08:55 | 46.36978 | 6.26682 | 38931 ft | 403 kts | 219° |
| 2026-05-05 08:56 | 46.32580 | 6.21569 | 38937 ft | 403 kts | 219° |
| 2026-05-05 08:56 | 46.28546 | 6.16886 | 38941 ft | 403 kts | 218° |
| 2026-05-05 08:57 | 46.23676 | 6.13089 | 38936 ft | 403 kts | 198° |
| 2026-05-05 08:57 | 46.18141 | 6.11612 | 38931 ft | 405 kts | 191° |
| 2026-05-05 08:58 | 46.12721 | 6.10409 | 38932 ft | 405 kts | 191° |
| 2026-05-05 08:58 | 46.07260 | 6.09184 | 38931 ft | 406 kts | 191° |
| 2026-05-05 08:59 | 46.01674 | 6.07952 | 38933 ft | 406 kts | 191° |
| 2026-05-05 08:59 | 45.96255 | 6.06762 | 38928 ft | 406 kts | 191° |
| 2026-05-05 09:00 | 45.92233 | 6.05866 | 38926 ft | 406 kts | 191° |
| 2026-05-05 09:00 | 45.86657 | 6.04630 | 38928 ft | 405 kts | 191° |
| 2026-05-05 09:01 | 45.81130 | 6.03421 | 38924 ft | 405 kts | 191° |
| 2026-05-05 09:01 | 45.76515 | 6.02404 | 38919 ft | 405 kts | 191° |
| 2026-05-05 09:02 | 45.70941 | 6.01165 | 38913 ft | 406 kts | 191° |
| 2026-05-05 09:02 | 45.65384 | 5.99939 | 38924 ft | 406 kts | 191° |
| 2026-05-05 09:03 | 45.59823 | 5.98722 | 38921 ft | 407 kts | 191° |
| 2026-05-05 09:03 | 45.54373 | 5.97529 | 38922 ft | 407 kts | 191° |
| 2026-05-05 09:04 | 45.48771 | 5.96305 | 38923 ft | 407 kts | 191° |
| 2026-05-05 09:04 | 45.43204 | 5.94850 | 38923 ft | 407 kts | 195° |
| 2026-05-05 09:05 | 45.37966 | 5.93119 | 38917 ft | 406 kts | 196° |
| 2026-05-05 09:05 | 45.32458 | 5.91287 | 38921 ft | 407 kts | 195° |
| 2026-05-05 09:06 | 45.26965 | 5.89558 | 38923 ft | 406 kts | 195° |
| 2026-05-05 09:06 | 45.21874 | 5.87997 | 38911 ft | 407 kts | 195° |
| 2026-05-05 09:07 | 45.16346 | 5.86299 | 38913 ft | 407 kts | 195° |
| 2026-05-05 09:07 | 45.10881 | 5.84609 | 38916 ft | 407 kts | 195° |
| 2026-05-05 09:08 | 45.05519 | 5.82951 | 38922 ft | 407 kts | 195° |
| 2026-05-05 09:08 | 44.99985 | 5.81243 | 38932 ft | 407 kts | 195° |
| 2026-05-05 09:09 | 44.94448 | 5.79542 | 38900 ft | 407 kts | 195° |
| 2026-05-05 09:09 | 44.89261 | 5.77943 | 38917 ft | 407 kts | 195° |
| 2026-05-05 09:10 | 44.83783 | 5.76258 | 38931 ft | 406 kts | 197° |
| 2026-05-05 09:10 | 44.78270 | 5.74540 | 38948 ft | 405 kts | 196° |
| 2026-05-05 09:11 | 44.72763 | 5.72881 | 38947 ft | 404 kts | 196° |
| 2026-05-05 09:11 | 44.67575 | 5.71307 | 38955 ft | 405 kts | 196° |
| 2026-05-05 09:12 | 44.62041 | 5.69628 | 38969 ft | 404 kts | 195° |
| 2026-05-05 09:12 | 44.56559 | 5.67960 | 38963 ft | 403 kts | 195° |
| 2026-05-05 09:13 | 44.51105 | 5.66309 | 38963 ft | 403 kts | 196° |
| 2026-05-05 09:13 | 44.45622 | 5.64650 | 38946 ft | 402 kts | 195° |
| 2026-05-05 09:14 | 44.40107 | 5.62987 | 38963 ft | 403 kts | 195° |
| 2026-05-05 09:14 | 44.34855 | 5.60635 | 38965 ft | 398 kts | 204° |
| 2026-05-05 09:15 | 44.29701 | 5.57801 | 38966 ft | 398 kts | 204° |
| 2026-05-05 09:15 | 44.24621 | 5.55021 | 38963 ft | 398 kts | 204° |
| 2026-05-05 09:16 | 44.19482 | 5.52217 | 38967 ft | 397 kts | 204° |
| 2026-05-05 09:16 | 44.14388 | 5.49433 | 38969 ft | 397 kts | 204° |
| 2026-05-05 09:17 | 44.09582 | 5.46811 | 38970 ft | 397 kts | 204° |
| 2026-05-05 09:17 | 44.04447 | 5.44019 | 38963 ft | 396 kts | 204° |
| 2026-05-05 09:18 | 43.99328 | 5.41254 | 38974 ft | 395 kts | 204° |
| 2026-05-05 09:18 | 43.94208 | 5.38485 | 38975 ft | 395 kts | 204° |
| 2026-05-05 09:19 | 43.89095 | 5.35719 | 38959 ft | 394 kts | 204° |
| 2026-05-05 09:19 | 43.84162 | 5.33056 | 38988 ft | 394 kts | 204° |
| 2026-05-05 09:20 | 43.79060 | 5.30304 | 38980 ft | 394 kts | 204° |
| 2026-05-05 09:20 | 43.73992 | 5.27569 | 38973 ft | 393 kts | 204° |
| 2026-05-05 09:21 | 43.69230 | 5.25007 | 38957 ft | 393 kts | 204° |
| 2026-05-05 09:21 | 43.64407 | 5.22424 | 38963 ft | 393 kts | 204° |
| 2026-05-05 09:22 | 43.59310 | 5.19705 | 38966 ft | 393 kts | 204° |
| 2026-05-05 09:22 | 43.54354 | 5.17057 | 38968 ft | 393 kts | 204° |
| 2026-05-05 09:23 | 43.49373 | 5.14401 | 38962 ft | 392 kts | 205° |
| 2026-05-05 09:23 | 43.44582 | 5.11850 | 38967 ft | 392 kts | 204° |
| 2026-05-05 09:24 | 43.39578 | 5.09164 | 38967 ft | 390 kts | 208° |
| 2026-05-05 09:24 | 43.35036 | 5.05275 | 38969 ft | 387 kts | 217° |
| 2026-05-05 09:25 | 43.31042 | 5.01493 | 38957 ft | 387 kts | 217° |
| 2026-05-05 09:25 | 43.26603 | 4.97328 | 38962 ft | 386 kts | 216° |
| 2026-05-05 09:26 | 43.22166 | 4.93174 | 38979 ft | 385 kts | 217° |
| 2026-05-05 09:26 | 43.17984 | 4.89255 | 38978 ft | 385 kts | 217° |
| 2026-05-05 09:27 | 43.13650 | 4.85201 | 38975 ft | 384 kts | 217° |
| 2026-05-05 09:27 | 43.09239 | 4.81073 | 38964 ft | 384 kts | 217° |
| 2026-05-05 09:28 | 43.04898 | 4.76824 | 38971 ft | 382 kts | 223° |
| 2026-05-05 09:28 | 43.00922 | 4.72003 | 38975 ft | 382 kts | 223° |
| 2026-05-05 09:29 | 42.96947 | 4.67192 | 38970 ft | 382 kts | 223° |
| 2026-05-05 09:29 | 42.92967 | 4.62382 | 38982 ft | 382 kts | 223° |
| 2026-05-05 09:30 | 42.88983 | 4.57576 | 38965 ft | 382 kts | 223° |
| 2026-05-05 09:30 | 42.84999 | 4.52785 | 38994 ft | 382 kts | 223° |
| 2026-05-05 09:31 | 42.81009 | 4.48003 | 38977 ft | 382 kts | 223° |
| 2026-05-05 09:31 | 42.77017 | 4.43227 | 38976 ft | 382 kts | 223° |
| 2026-05-05 09:32 | 42.73026 | 4.38452 | 38976 ft | 382 kts | 223° |
| 2026-05-05 09:32 | 42.69035 | 4.33681 | 38979 ft | 382 kts | 223° |
| 2026-05-05 09:33 | 42.65040 | 4.28922 | 38977 ft | 382 kts | 223° |
| 2026-05-05 09:33 | 42.61041 | 4.24173 | 38979 ft | 382 kts | 223° |
| 2026-05-05 09:34 | 42.57043 | 4.19426 | 38987 ft | 382 kts | 223° |
| 2026-05-05 09:34 | 42.53038 | 4.14677 | 38966 ft | 382 kts | 223° |
| 2026-05-05 09:35 | 42.49029 | 4.09929 | 38891 ft | 387 kts | 223° |
| 2026-05-05 09:35 | 42.44919 | 4.05068 | 37852 ft | 395 kts | 223° |
| 2026-05-05 09:35 | 42.42856 | 4.02636 | 37305 ft | 391 kts | 223° |
| 2026-05-05 09:36 | 42.40817 | 4.00232 | 36781 ft | 386 kts | 223° |
| 2026-05-05 09:36 | 42.38804 | 3.97857 | 36265 ft | 382 kts | 223° |
| 2026-05-05 09:36 | 42.36815 | 3.95516 | 35761 ft | 377 kts | 223° |
| 2026-05-05 09:36 | 42.34849 | 3.93207 | 35259 ft | 372 kts | 223° |
| 2026-05-05 09:37 | 42.32901 | 3.90926 | 34757 ft | 368 kts | 223° |
| 2026-05-05 09:37 | 42.30980 | 3.88677 | 34278 ft | 363 kts | 223° |
| 2026-05-05 09:37 | 42.29085 | 3.86457 | 33783 ft | 359 kts | 223° |
| 2026-05-05 09:37 | 42.27208 | 3.84255 | 33239 ft | 356 kts | 223° |
| 2026-05-05 09:38 | 42.25351 | 3.82075 | 32707 ft | 352 kts | 223° |
| 2026-05-05 09:38 | 42.23513 | 3.79920 | 32216 ft | 348 kts | 223° |
| 2026-05-05 09:38 | 42.21690 | 3.77786 | 31694 ft | 345 kts | 224° |
| 2026-05-05 09:38 | 42.19892 | 3.75685 | 31217 ft | 341 kts | 224° |
| 2026-05-05 09:39 | 42.18114 | 3.73614 | 30820 ft | 335 kts | 224° |
| 2026-05-05 09:39 | 42.16364 | 3.71578 | 30442 ft | 329 kts | 224° |
| 2026-05-05 09:39 | 42.14651 | 3.69577 | 30042 ft | 324 kts | 224° |
| 2026-05-05 09:39 | 42.12957 | 3.67600 | 29562 ft | 321 kts | 224° |
| 2026-05-05 09:40 | 42.11272 | 3.65638 | 29113 ft | 319 kts | 224° |
| 2026-05-05 09:40 | 42.09591 | 3.63687 | 28662 ft | 317 kts | 224° |
| 2026-05-05 09:40 | 42.07984 | 3.61677 | 28240 ft | 314 kts | 228° |
| 2026-05-05 09:40 | 42.06478 | 3.59561 | 27758 ft | 312 kts | 228° |
| 2026-05-05 09:41 | 42.04979 | 3.57462 | 27285 ft | 310 kts | 228° |
| 2026-05-05 09:41 | 42.03488 | 3.55378 | 26820 ft | 308 kts | 228° |
| 2026-05-05 09:41 | 42.02005 | 3.53309 | 26365 ft | 306 kts | 228° |
| 2026-05-05 09:41 | 42.00531 | 3.51255 | 25912 ft | 304 kts | 228° |
| 2026-05-05 09:42 | 41.99067 | 3.49216 | 25468 ft | 302 kts | 228° |
| 2026-05-05 09:42 | 41.97612 | 3.47190 | 25032 ft | 300 kts | 228° |
| 2026-05-05 09:42 | 41.96167 | 3.45176 | 24602 ft | 298 kts | 228° |
| 2026-05-05 09:42 | 41.94729 | 3.43174 | 24171 ft | 297 kts | 228° |
| 2026-05-05 09:43 | 41.93309 | 3.41196 | 23733 ft | 295 kts | 228° |
| 2026-05-05 09:43 | 41.91883 | 3.39211 | 23276 ft | 293 kts | 228° |
| 2026-05-05 09:43 | 41.90469 | 3.37247 | 22783 ft | 291 kts | 228° |
| 2026-05-05 09:43 | 41.89061 | 3.35297 | 22299 ft | 290 kts | 228° |
| 2026-05-05 09:44 | 41.87658 | 3.33353 | 21826 ft | 290 kts | 228° |
| 2026-05-05 09:44 | 41.86258 | 3.31412 | 21351 ft | 289 kts | 228° |
| 2026-05-05 09:44 | 41.84882 | 3.29502 | 20882 ft | 288 kts | 228° |
| 2026-05-05 09:44 | 41.83943 | 3.28199 | 20589 ft | 288 kts | 227° |
| 2026-05-05 09:45 | 41.82098 | 3.25651 | 19995 ft | 287 kts | 227° |
| 2026-05-05 09:45 | 41.80709 | 3.23735 | 19555 ft | 287 kts | 227° |
| 2026-05-05 09:45 | 41.79320 | 3.21819 | 19121 ft | 286 kts | 227° |
| 2026-05-05 09:45 | 41.77934 | 3.19908 | 18689 ft | 286 kts | 227° |
| 2026-05-05 09:46 | 41.76549 | 3.17996 | 18277 ft | 286 kts | 227° |
| 2026-05-05 09:46 | 41.75164 | 3.16085 | 17788 ft | 286 kts | 227° |
| 2026-05-05 09:46 | 41.73832 | 3.14250 | 17326 ft | 286 kts | 227° |
| 2026-05-05 09:46 | 41.72895 | 3.12963 | 16996 ft | 286 kts | 227° |
| 2026-05-05 09:47 | 41.71504 | 3.11054 | 16532 ft | 287 kts | 226° |
| 2026-05-05 09:47 | 41.70110 | 3.09142 | 16066 ft | 287 kts | 226° |
| 2026-05-05 09:47 | 41.68714 | 3.07226 | 15610 ft | 288 kts | 226° |
| 2026-05-05 09:47 | 41.67332 | 3.05331 | 15169 ft | 289 kts | 226° |
| 2026-05-05 09:48 | 41.65908 | 3.03435 | 14741 ft | 289 kts | 221° |
| 2026-05-05 09:48 | 41.64456 | 3.01602 | 14443 ft | 285 kts | 233° |
| 2026-05-05 09:48 | 41.63501 | 2.99281 | 14077 ft | 285 kts | 242° |
| 2026-05-05 09:48 | 41.62659 | 2.96888 | 13718 ft | 284 kts | 243° |
| 2026-05-05 09:49 | 41.61825 | 2.94503 | 13324 ft | 283 kts | 243° |
| 2026-05-05 09:49 | 41.60981 | 2.92139 | 12917 ft | 281 kts | 242° |
| 2026-05-05 09:49 | 41.60124 | 2.89796 | 12499 ft | 280 kts | 242° |
| 2026-05-05 09:49 | 41.59254 | 2.87466 | 12085 ft | 279 kts | 242° |
| 2026-05-05 09:50 | 41.58440 | 2.85308 | 11706 ft | 278 kts | 242° |
| 2026-05-05 09:50 | 41.57566 | 2.83007 | 11302 ft | 277 kts | 242° |
| 2026-05-05 09:50 | 41.56732 | 2.80825 | 10924 ft | 276 kts | 242° |
| 2026-05-05 09:50 | 41.55859 | 2.78546 | 10530 ft | 275 kts | 242° |
| 2026-05-05 09:51 | 41.54990 | 2.76277 | 10145 ft | 273 kts | 242° |
| 2026-05-05 09:51 | 41.54127 | 2.74032 | 9755 ft | 271 kts | 242° |
| 2026-05-05 09:51 | 41.53268 | 2.71794 | 9330 ft | 270 kts | 242° |
| 2026-05-05 09:51 | 41.52417 | 2.69574 | 8896 ft | 268 kts | 242° |
| 2026-05-05 09:52 | 41.51571 | 2.67370 | 8483 ft | 266 kts | 242° |
| 2026-05-05 09:52 | 41.50731 | 2.65183 | 8089 ft | 264 kts | 242° |
| 2026-05-05 09:52 | 41.49897 | 2.63011 | 7683 ft | 262 kts | 242° |
| 2026-05-05 09:52 | 41.49068 | 2.60848 | 7282 ft | 261 kts | 242° |
| 2026-05-05 09:53 | 41.48240 | 2.58692 | 6890 ft | 261 kts | 242° |
| 2026-05-05 09:53 | 41.47412 | 2.56543 | 6488 ft | 260 kts | 242° |
| 2026-05-05 09:53 | 41.46636 | 2.54532 | 6116 ft | 260 kts | 242° |
| 2026-05-05 09:53 | 41.45809 | 2.52392 | 5704 ft | 260 kts | 242° |
| 2026-05-05 09:54 | 41.44981 | 2.50252 | 5310 ft | 259 kts | 242° |
| 2026-05-05 09:54 | 41.44156 | 2.48117 | 4911 ft | 259 kts | 243° |
| 2026-05-05 09:54 | 41.43333 | 2.45986 | 4511 ft | 258 kts | 243° |
| 2026-05-05 09:54 | 41.42514 | 2.43870 | 4108 ft | 256 kts | 243° |
| 2026-05-05 09:55 | 41.41711 | 2.41797 | 3704 ft | 253 kts | 243° |
| 2026-05-05 09:55 | 41.40889 | 2.39892 | 3327 ft | 250 kts | 236° |
| 2026-05-05 09:55 | 41.39979 | 2.37934 | 2923 ft | 247 kts | 243° |
| 2026-05-05 09:55 | 41.39320 | 2.36128 | 2566 ft | 245 kts | 248° |
| 2026-05-05 09:56 | 41.38644 | 2.34076 | 2308 ft | 236 kts | 246° |
| 2026-05-05 09:56 | 41.37990 | 2.32161 | 2295 ft | 218 kts | 247° |
| 2026-05-05 09:56 | 41.37388 | 2.30392 | 2299 ft | 202 kts | 248° |
| 2026-05-05 09:56 | 41.36813 | 2.28698 | 2304 ft | 200 kts | 247° |
| 2026-05-05 09:57 | 41.36258 | 2.27066 | 2337 ft | 185 kts | 248° |
| 2026-05-05 09:57 | 41.35756 | 2.25589 | 2313 ft | 166 kts | 249° |
| 2026-05-05 09:57 | 41.35308 | 2.24276 | 2222 ft | 152 kts | 249° |
| 2026-05-05 09:57 | 41.34885 | 2.23028 | 2067 ft | 143 kts | 247° |
| 2026-05-05 09:58 | 41.34487 | 2.21858 | 1914 ft | 136 kts | 246° |
| 2026-05-05 09:58 | 41.34100 | 2.20719 | 1745 ft | 134 kts | 246° |
| 2026-05-05 09:58 | 41.33716 | 2.19591 | 1558 ft | 134 kts | 246° |
| 2026-05-05 09:58 | 41.33334 | 2.18470 | 1381 ft | 133 kts | 246° |
| 2026-05-05 09:59 | 41.32954 | 2.17354 | 1194 ft | 133 kts | 246° |
| 2026-05-05 09:59 | 41.32574 | 2.16242 | 1017 ft | 128 kts | 247° |
| 2026-05-05 09:59 | 41.32211 | 2.15178 | 839 ft | 128 kts | 248° |
| 2026-05-05 09:59 | 41.31848 | 2.14114 | 669 ft | 125 kts | 247° |
| 2026-05-05 10:00 | 41.31486 | 2.13055 | 493 ft | 125 kts | 247° |
| 2026-05-05 10:00 | 41.31116 | 2.11978 | 328 ft | 129 kts | 248° |
| 2026-05-05 10:00 | 41.30749 | 2.10905 | 169 ft | 127 kts | 249° |
| 2026-05-05 10:00 | 41.30388 | 2.09836 | 30 ft | 125 kts | 249° |
| 2026-05-05 10:01 | 41.30080 | 2.08929 | 21 ft | 84 kts | 245° |
| 2026-05-05 10:01 | 41.29914 | 2.08452 | 27 ft | 31 kts | 240° |
| 2026-05-05 10:01 | 41.29783 | 2.08267 | 20 ft | 20 kts | 217° |
| 2026-05-05 10:01 | 41.29697 | 2.08191 | 17 ft | 9 kts | 195° |
| 2026-05-05 10:02 | 41.29663 | 2.08199 | 17 ft | 3 kts | 160° |
| 2026-05-05 10:02 | 41.29608 | 2.08233 | 16 ft | 14 kts | 155° |
| 2026-05-05 10:02 | 41.29521 | 2.08285 | 19 ft | 13 kts | 156° |
| 2026-05-05 10:02 | 41.29445 | 2.08331 | 18 ft | 11 kts | 155° |
| 2026-05-05 10:03 | 41.29381 | 2.08370 | 19 ft | 9 kts | 156° |
| 2026-05-05 10:03 | 41.29326 | 2.08402 | 21 ft | 8 kts | 155° |
| 2026-05-05 10:03 | 41.29273 | 2.08434 | 23 ft | 9 kts | 155° |
| 2026-05-05 10:03 | 41.29218 | 2.08458 | 20 ft | 8 kts | 195° |
| 2026-05-05 10:04 | 41.29154 | 2.08427 | 20 ft | 15 kts | 200° |
| 2026-05-05 10:04 | 41.29038 | 2.08371 | 19 ft | 17 kts | 198° |
| 2026-05-05 10:04 | 41.28919 | 2.08318 | 19 ft | 19 kts | 199° |
| 2026-05-05 10:04 | 41.28810 | 2.08266 | 16 ft | 8 kts | 200° |
| 2026-05-05 10:05 | 41.28784 | 2.08239 | 16 ft | 7 kts | 245° |
| 2026-05-05 10:05 | 41.28822 | 2.08184 | 17 ft | 12 kts | 339° |
| 2026-05-05 10:05 | 41.28910 | 2.08141 | 20 ft | 15 kts | 339° |
| 2026-05-05 10:05 | 41.28937 | 2.08037 | 19 ft | 15 kts | 247° |
| 2026-05-05 10:06 | 41.28894 | 2.07911 | 20 ft | 16 kts | 244° |
| 2026-05-05 10:06 | 41.28815 | 2.07866 | 18 ft | 9 kts | 160° |
| 2026-05-05 10:06 | 41.28777 | 2.07918 | 18 ft | 7 kts | 106° |
| 2026-05-05 10:06 | 41.28768 | 2.07986 | 18 ft | 8 kts | 100° |
| 2026-05-05 10:07 | 41.28765 | 2.08004 | 17 ft | 0 kts | 100° |